PWSweather.com
Personal Weather Stations
Station Observations
MFGBD
Tower Mfg , BavendorfDE

Tower Mfg BavendorfDE

Lat: 47.752282, Lon: 9.549614

Elevation: 1525

Station Type: Wounder Weather Station

High Low Average
Temperature 44.4°F6.9°C 24.6°F-4.1°C 31.0°F-0.6°C
Dew Point 42.5°F5.8°C 24.6°F-4.1°C 30.4°F-0.9°C
Winds 3.6 mph 5.8 kmh Calm Calm 1.0 mph WSW1.6 kmh WSW
Wind Gusts 5.9 mph9.5 kmh -- 1.0 mph1.6 kmh
Humidity 100% 84% 98%
Pressure 30.24 in1024.0 mb 29.97 in1014.9 mb -
Precipitation 0.00 in0.0 mm - -
Hour Temp Dew Point Humidity Winds Wind Gusts Pressure Precip Precip Rate Daily Precip Total
12:12 AM 28.0°F-2.2°C 28.0°F-2.2°C 100% 2.1 mph NW3.4 kmh NW 3.1 mph5.0 kmh 30.24 in1024.0 mb 0.00 in0.0 mm 0.00 in0.0 mm 0.00 in0.0 mm
12:42 AM 28.0°F-2.2°C 28.0°F-2.2°C 100% Calm Calm 1.8 mph2.9 kmh 30.23 in1023.7 mb 0.00 in0.0 mm 0.00 in0.0 mm 0.00 in0.0 mm
12:55 AM 27.5°F-2.5°C 27.5°F-2.5°C 100% Calm Calm -- 30.23 in1023.7 mb 0.00 in0.0 mm 0.00 in0.0 mm 0.00 in0.0 mm
01:25 AM 26.9°F-2.8°C 26.9°F-2.8°C 100% Calm Calm -- 30.22 in1023.4 mb 0.00 in0.0 mm 0.00 in0.0 mm 0.00 in0.0 mm
01:55 AM 27.1°F-2.7°C 27.1°F-2.7°C 100% Calm Calm -- 30.22 in1023.4 mb 0.00 in0.0 mm 0.00 in0.0 mm 0.00 in0.0 mm
02:25 AM 26.6°F-3.0°C 26.6°F-3.0°C 100% Calm Calm -- 30.21 in1023.0 mb 0.00 in0.0 mm 0.00 in0.0 mm 0.00 in0.0 mm
02:55 AM 26.2°F-3.2°C 26.2°F-3.2°C 100% Calm Calm -- 30.21 in1023.0 mb 0.00 in0.0 mm 0.00 in0.0 mm 0.00 in0.0 mm
03:25 AM 25.8°F-3.4°C 25.8°F-3.4°C 100% Calm Calm -- 30.20 in1022.7 mb 0.00 in0.0 mm 0.00 in0.0 mm 0.00 in0.0 mm
03:55 AM 26.0°F-3.3°C 26.0°F-3.3°C 100% Calm Calm -- 30.19 in1022.4 mb 0.00 in0.0 mm 0.00 in0.0 mm 0.00 in0.0 mm
04:25 AM 25.7°F-3.5°C 25.7°F-3.5°C 100% Calm Calm -- 30.18 in1022.0 mb 0.00 in0.0 mm 0.00 in0.0 mm 0.00 in0.0 mm
04:55 AM 26.0°F-3.3°C 26.0°F-3.3°C 100% Calm Calm -- 30.17 in1021.7 mb 0.00 in0.0 mm 0.00 in0.0 mm 0.00 in0.0 mm
05:25 AM 25.1°F-3.8°C 25.1°F-3.8°C 100% Calm Calm -- 30.17 in1021.7 mb 0.00 in0.0 mm 0.00 in0.0 mm 0.00 in0.0 mm
05:55 AM 25.3°F-3.7°C 25.3°F-3.7°C 100% Calm Calm -- 30.16 in1021.3 mb 0.00 in0.0 mm 0.00 in0.0 mm 0.00 in0.0 mm
06:25 AM 24.6°F-4.1°C 24.6°F-4.1°C 100% Calm Calm -- 30.15 in1021.0 mb 0.00 in0.0 mm 0.00 in0.0 mm 0.00 in0.0 mm
06:55 AM 24.6°F-4.1°C 24.6°F-4.1°C 100% Calm Calm -- 30.15 in1021.0 mb 0.00 in0.0 mm 0.00 in0.0 mm 0.00 in0.0 mm
07:25 AM 25.1°F-3.8°C 25.1°F-3.8°C 100% Calm Calm -- 30.14 in1020.7 mb 0.00 in0.0 mm 0.00 in0.0 mm 0.00 in0.0 mm
07:55 AM 25.3°F-3.7°C 25.3°F-3.7°C 100% Calm Calm -- 30.14 in1020.7 mb 0.00 in0.0 mm 0.00 in0.0 mm 0.00 in0.0 mm
08:25 AM 26.9°F-2.8°C 26.9°F-2.8°C 100% Calm Calm -- 30.14 in1020.7 mb 0.00 in0.0 mm 0.00 in0.0 mm 0.00 in0.0 mm
08:55 AM 29.3°F-1.5°C 29.3°F-1.5°C 100% Calm Calm -- 30.14 in1020.7 mb 0.00 in0.0 mm 0.00 in0.0 mm 0.00 in0.0 mm
09:25 AM 30.5°F-0.8°C 30.5°F-0.8°C 100% Calm Calm -- 30.14 in1020.7 mb 0.00 in0.0 mm 0.00 in0.0 mm 0.00 in0.0 mm
09:55 AM 32.3°F0.2°C 32.3°F0.2°C 100% Calm Calm -- 30.14 in1020.7 mb 0.00 in0.0 mm 0.00 in0.0 mm 0.00 in0.0 mm
10:25 AM 34.1°F1.2°C 34.1°F1.2°C 100% Calm Calm -- 30.14 in1020.7 mb 0.00 in0.0 mm 0.00 in0.0 mm 0.00 in0.0 mm
10:55 AM 35.7°F2.1°C 35.7°F2.1°C 100% Calm Calm -- 30.14 in1020.7 mb 0.00 in0.0 mm 0.00 in0.0 mm 0.00 in0.0 mm
11:25 AM 37.2°F2.9°C 37.2°F2.9°C 100% Calm Calm -- 30.14 in1020.7 mb 0.00 in0.0 mm 0.00 in0.0 mm 0.00 in0.0 mm
11:55 AM 39.7°F4.3°C 39.7°F4.3°C 100% Calm Calm -- 30.13 in1020.3 mb 0.00 in0.0 mm 0.00 in0.0 mm 0.00 in0.0 mm
12:25 PM 41.0°F5.0°C 41.0°F5.0°C 100% 0.2 mph S0.3 kmh S 2.1 mph3.4 kmh 30.11 in1019.6 mb 0.00 in0.0 mm 0.00 in0.0 mm 0.00 in0.0 mm
12:55 PM 42.4°F5.8°C 42.0°F5.6°C 98% Calm Calm 2.8 mph4.5 kmh 30.10 in1019.3 mb 0.00 in0.0 mm 0.00 in0.0 mm 0.00 in0.0 mm
01:25 PM 44.4°F6.9°C 42.5°F5.8°C 93% 2.3 mph SE3.7 kmh SE 3.1 mph5.0 kmh 30.09 in1019.0 mb 0.00 in0.0 mm 0.00 in0.0 mm 0.00 in0.0 mm
01:55 PM 43.3°F6.3°C 39.7°F4.3°C 87% 3.3 mph SE5.3 kmh SE 3.4 mph5.5 kmh 30.08 in1018.6 mb 0.00 in0.0 mm 0.00 in0.0 mm 0.00 in0.0 mm
02:25 PM 42.0°F5.6°C 38.3°F3.5°C 86% 2.2 mph S3.5 kmh S 5.9 mph9.5 kmh 30.07 in1018.3 mb 0.00 in0.0 mm 0.00 in0.0 mm 0.00 in0.0 mm
02:55 PM 41.9°F5.5°C 38.0°F3.3°C 86% 0.7 mph SW1.1 kmh SW 3.7 mph6.0 kmh 30.06 in1017.9 mb 0.00 in0.0 mm 0.00 in0.0 mm 0.00 in0.0 mm
03:25 PM 42.8°F6.0°C 38.4°F3.6°C 84% 3.6 mph SSW5.8 kmh SSW 4.3 mph6.9 kmh 30.06 in1017.9 mb 0.00 in0.0 mm 0.00 in0.0 mm 0.00 in0.0 mm
03:55 PM 39.5°F4.2°C 35.9°F2.2°C 86% 1.1 mph WSW1.8 kmh WSW 3.1 mph5.0 kmh 30.05 in1017.6 mb 0.00 in0.0 mm 0.00 in0.0 mm 0.00 in0.0 mm
04:25 PM 37.9°F3.3°C 35.1°F1.7°C 89% 1.0 mph W1.6 kmh W 3.7 mph6.0 kmh 30.04 in1017.3 mb 0.00 in0.0 mm 0.00 in0.0 mm 0.00 in0.0 mm
04:55 PM 34.8°F1.6°C 33.0°F0.6°C 92% 1.4 mph NW2.3 kmh NW 2.5 mph4.0 kmh 30.03 in1016.9 mb 0.00 in0.0 mm 0.00 in0.0 mm 0.00 in0.0 mm
05:25 PM 32.3°F0.2°C 31.2°F-0.4°C 95% Calm Calm 1.5 mph2.4 kmh 30.03 in1016.9 mb 0.00 in0.0 mm 0.00 in0.0 mm 0.00 in0.0 mm
05:55 PM 31.2°F-0.4°C 30.5°F-0.8°C 97% 1.1 mph W1.8 kmh W 1.8 mph2.9 kmh 30.03 in1016.9 mb 0.00 in0.0 mm 0.00 in0.0 mm 0.00 in0.0 mm
07:20 PM 30.7°F-0.7°C 30.5°F-0.8°C 99% 3.1 mph WNW5.0 kmh WNW 3.4 mph5.5 kmh 30.03 in1016.9 mb 0.00 in0.0 mm 0.00 in0.0 mm 0.00 in0.0 mm
07:50 PM 28.5°F-1.9°C 28.2°F-2.1°C 98% Calm Calm -- 30.02 in1016.6 mb 0.00 in0.0 mm 0.00 in0.0 mm 0.00 in0.0 mm
08:20 PM 28.2°F-2.1°C 27.9°F-2.3°C 99% Calm Calm -- 30.01 in1016.3 mb 0.00 in0.0 mm 0.00 in0.0 mm 0.00 in0.0 mm
08:50 PM 28.2°F-2.1°C 27.9°F-2.3°C 99% Calm Calm -- 30.01 in1016.3 mb 0.00 in0.0 mm 0.00 in0.0 mm 0.00 in0.0 mm
09:20 PM 27.3°F-2.6°C 27.1°F-2.7°C 99% Calm Calm -- 29.99 in1015.6 mb 0.00 in0.0 mm 0.00 in0.0 mm 0.00 in0.0 mm
09:50 PM 27.3°F-2.6°C 27.2°F-2.7°C 99% 0.3 mph NW0.5 kmh NW 2.1 mph3.4 kmh 29.98 in1015.2 mb 0.00 in0.0 mm 0.00 in0.0 mm 0.00 in0.0 mm
10:20 PM 26.6°F-3.0°C 26.5°F-3.1°C 99% Calm Calm -- 29.97 in1014.9 mb 0.00 in0.0 mm 0.00 in0.0 mm 0.00 in0.0 mm
10:50 PM 26.0°F-3.3°C 26.0°F-3.3°C 99% Calm Calm -- 29.97 in1014.9 mb 0.00 in0.0 mm 0.00 in0.0 mm 0.00 in0.0 mm
11:20 PM 25.8°F-3.4°C 25.8°F-3.4°C 100% 0.8 mph NNW1.3 kmh NNW -- 29.97 in1014.9 mb 0.00 in0.0 mm 0.00 in0.0 mm 0.00 in0.0 mm
11:50 PM 26.4°F-3.1°C 26.4°F-3.1°C 100% 1.5 mph W2.4 kmh W 3.7 mph6.0 kmh 29.98 in1015.2 mb 0.00 in0.0 mm 0.00 in0.0 mm 0.00 in0.0 mm